sensor_id;sensor_type;location;lat;lon;timestamp;temperature;humidity
20504;DHT22;10410;51.046;6.980;2022-07-17T00:02:22;14.50;88.60
20504;DHT22;10410;51.046;6.980;2022-07-17T00:09:23;14.40;89.00
20504;DHT22;10410;51.046;6.980;2022-07-17T00:16:23;14.40;89.70
20504;DHT22;10410;51.046;6.980;2022-07-17T00:23:24;14.30;90.00
20504;DHT22;10410;51.046;6.980;2022-07-17T00:30:24;14.20;90.30
20504;DHT22;10410;51.046;6.980;2022-07-17T00:37:25;14.10;90.60
20504;DHT22;10410;51.046;6.980;2022-07-17T00:44:26;13.90;91.00
20504;DHT22;10410;51.046;6.980;2022-07-17T00:51:27;13.80;91.30
20504;DHT22;10410;51.046;6.980;2022-07-17T00:58:29;13.70;91.60
20504;DHT22;10410;51.046;6.980;2022-07-17T01:05:29;13.50;91.90
20504;DHT22;10410;51.046;6.980;2022-07-17T01:12:30;13.50;92.20
20504;DHT22;10410;51.046;6.980;2022-07-17T01:19:32;13.50;92.40
20504;DHT22;10410;51.046;6.980;2022-07-17T01:26:33;13.40;92.80
20504;DHT22;10410;51.046;6.980;2022-07-17T01:33:33;13.20;93.00
20504;DHT22;10410;51.046;6.980;2022-07-17T01:40:34;13.10;93.30
20504;DHT22;10410;51.046;6.980;2022-07-17T01:47:34;13.00;93.80
20504;DHT22;10410;51.046;6.980;2022-07-17T01:54:35;12.90;94.00
20504;DHT22;10410;51.046;6.980;2022-07-17T02:01:35;12.90;94.40
20504;DHT22;10410;51.046;6.980;2022-07-17T02:08:36;12.80;94.70
20504;DHT22;10410;51.046;6.980;2022-07-17T02:15:36;12.70;95.00
20504;DHT22;10410;51.046;6.980;2022-07-17T02:22:37;12.60;95.20
20504;DHT22;10410;51.046;6.980;2022-07-17T02:29:37;12.60;95.60
20504;DHT22;10410;51.046;6.980;2022-07-17T02:36:38;12.50;96.00
20504;DHT22;10410;51.046;6.980;2022-07-17T02:43:38;12.30;96.30
20504;DHT22;10410;51.046;6.980;2022-07-17T02:50:39;12.20;96.60
20504;DHT22;10410;51.046;6.980;2022-07-17T02:57:39;12.10;97.10
20504;DHT22;10410;51.046;6.980;2022-07-17T03:04:40;12.00;97.50
20504;DHT22;10410;51.046;6.980;2022-07-17T03:11:40;12.00;97.90
20504;DHT22;10410;51.046;6.980;2022-07-17T03:18:41;12.00;98.20
20504;DHT22;10410;51.046;6.980;2022-07-17T03:25:42;12.10;98.60
20504;DHT22;10410;51.046;6.980;2022-07-17T03:32:42;12.10;99.00
20504;DHT22;10410;51.046;6.980;2022-07-17T03:39:43;12.10;99.40
20504;DHT22;10410;51.046;6.980;2022-07-17T03:46:43;12.10;99.80
20504;DHT22;10410;51.046;6.980;2022-07-17T03:53:44;12.00;99.90
20504;DHT22;10410;51.046;6.980;2022-07-17T04:00:44;12.00;99.90
20504;DHT22;10410;51.046;6.980;2022-07-17T04:07:45;11.90;99.90
20504;DHT22;10410;51.046;6.980;2022-07-17T04:14:45;11.90;99.90
20504;DHT22;10410;51.046;6.980;2022-07-17T04:21:46;11.90;99.90
20504;DHT22;10410;51.046;6.980;2022-07-17T04:28:46;11.70;99.90
20504;DHT22;10410;51.046;6.980;2022-07-17T04:35:46;11.70;99.90
20504;DHT22;10410;51.046;6.980;2022-07-17T04:42:47;11.70;99.90
20504;DHT22;10410;51.046;6.980;2022-07-17T04:49:47;11.80;99.90
20504;DHT22;10410;51.046;6.980;2022-07-17T04:56:48;12.00;99.90
20504;DHT22;10410;51.046;6.980;2022-07-17T05:03:48;12.10;99.90
20504;DHT22;10410;51.046;6.980;2022-07-17T05:10:48;12.30;99.90
20504;DHT22;10410;51.046;6.980;2022-07-17T05:17:49;12.50;99.90
20504;DHT22;10410;51.046;6.980;2022-07-17T05:24:49;12.70;99.90
20504;DHT22;10410;51.046;6.980;2022-07-17T05:31:50;13.00;99.90
20504;DHT22;10410;51.046;6.980;2022-07-17T05:38:50;13.20;99.90
20504;DHT22;10410;51.046;6.980;2022-07-17T05:45:56;13.40;99.90
20504;DHT22;10410;51.046;6.980;2022-07-17T05:52:56;13.70;99.90
20504;DHT22;10410;51.046;6.980;2022-07-17T05:59:57;13.90;99.90
20504;DHT22;10410;51.046;6.980;2022-07-17T06:06:58;14.20;99.90
20504;DHT22;10410;51.046;6.980;2022-07-17T06:13:59;14.40;99.90
20504;DHT22;10410;51.046;6.980;2022-07-17T06:20:59;14.80;99.90
20504;DHT22;10410;51.046;6.980;2022-07-17T06:28:00;15.00;99.90
20504;DHT22;10410;51.046;6.980;2022-07-17T06:35:00;15.30;99.90
20504;DHT22;10410;51.046;6.980;2022-07-17T06:42:01;15.60;99.90
20504;DHT22;10410;51.046;6.980;2022-07-17T06:49:01;15.90;99.90
20504;DHT22;10410;51.046;6.980;2022-07-17T06:56:02;16.20;99.90
20504;DHT22;10410;51.046;6.980;2022-07-17T07:03:03;16.60;99.90
20504;DHT22;10410;51.046;6.980;2022-07-17T07:10:03;16.80;99.90
20504;DHT22;10410;51.046;6.980;2022-07-17T07:17:04;17.20;99.90
20504;DHT22;10410;51.046;6.980;2022-07-17T07:24:05;17.50;99.90
20504;DHT22;10410;51.046;6.980;2022-07-17T07:31:06;17.90;99.90
20504;DHT22;10410;51.046;6.980;2022-07-17T07:38:06;18.30;99.90
20504;DHT22;10410;51.046;6.980;2022-07-17T07:45:07;18.50;99.80
20504;DHT22;10410;51.046;6.980;2022-07-17T07:52:08;18.90;99.10
20504;DHT22;10410;51.046;6.980;2022-07-17T07:59:09;19.10;98.40
20504;DHT22;10410;51.046;6.980;2022-07-17T08:06:09;19.40;98.00
20504;DHT22;10410;51.046;6.980;2022-07-17T08:13:10;19.60;97.60
20504;DHT22;10410;51.046;6.980;2022-07-17T08:20:11;19.90;97.00
20504;DHT22;10410;51.046;6.980;2022-07-17T08:27:14;20.10;96.20
20504;DHT22;10410;51.046;6.980;2022-07-17T08:34:14;20.20;95.70
20504;DHT22;10410;51.046;6.980;2022-07-17T08:41:15;20.50;95.20
20504;DHT22;10410;51.046;6.980;2022-07-17T08:48:17;20.70;94.50
20504;DHT22;10410;51.046;6.980;2022-07-17T08:55:18;20.80;94.20
20504;DHT22;10410;51.046;6.980;2022-07-17T09:02:18;20.90;93.30
20504;DHT22;10410;51.046;6.980;2022-07-17T09:09:19;20.80;91.80
20504;DHT22;10410;51.046;6.980;2022-07-17T09:16:20;20.90;90.40
20504;DHT22;10410;51.046;6.980;2022-07-17T09:23:22;21.00;90.60
20504;DHT22;10410;51.046;6.980;2022-07-17T09:30:23;21.10;90.40
20504;DHT22;10410;51.046;6.980;2022-07-17T09:37:25;21.40;90.10
20504;DHT22;10410;51.046;6.980;2022-07-17T09:44:26;21.50;86.30
20504;DHT22;10410;51.046;6.980;2022-07-17T09:51:30;21.50;87.20
20504;DHT22;10410;51.046;6.980;2022-07-17T09:58:32;21.70;85.20
20504;DHT22;10410;51.046;6.980;2022-07-17T10:05:35;21.80;85.30
20504;DHT22;10410;51.046;6.980;2022-07-17T10:12:45;22.00;84.10
20504;DHT22;10410;51.046;6.980;2022-07-17T10:19:56;22.20;84.10
20504;DHT22;10410;51.046;6.980;2022-07-17T10:26:58;22.40;82.30
20504;DHT22;10410;51.046;6.980;2022-07-17T10:34:05;22.60;82.20
20504;DHT22;10410;51.046;6.980;2022-07-17T10:41:06;22.80;77.40
20504;DHT22;10410;51.046;6.980;2022-07-17T10:48:07;22.90;74.50
20504;DHT22;10410;51.046;6.980;2022-07-17T10:55:21;23.00;75.10
20504;DHT22;10410;51.046;6.980;2022-07-17T11:02:29;23.20;72.60
20504;DHT22;10410;51.046;6.980;2022-07-17T11:09:30;23.30;72.80
20504;DHT22;10410;51.046;6.980;2022-07-17T11:16:31;23.50;73.20
20504;DHT22;10410;51.046;6.980;2022-07-17T11:23:33;23.70;72.50
20504;DHT22;10410;51.046;6.980;2022-07-17T11:30:35;23.80;73.20
20504;DHT22;10410;51.046;6.980;2022-07-17T11:37:35;24.10;73.90
20504;DHT22;10410;51.046;6.980;2022-07-17T11:44:36;24.40;71.50
20504;DHT22;10410;51.046;6.980;2022-07-17T11:51:42;24.50;70.30
20504;DHT22;10410;51.046;6.980;2022-07-17T11:58:45;24.70;70.40
20504;DHT22;10410;51.046;6.980;2022-07-17T12:05:46;25.10;69.60
20504;DHT22;10410;51.046;6.980;2022-07-17T12:13:06;25.60;68.60
20504;DHT22;10410;51.046;6.980;2022-07-17T12:20:08;25.60;64.70
20504;DHT22;10410;51.046;6.980;2022-07-17T12:27:13;25.40;65.90
20504;DHT22;10410;51.046;6.980;2022-07-17T12:34:15;25.60;65.90
20504;DHT22;10410;51.046;6.980;2022-07-17T12:41:16;25.80;65.80
20504;DHT22;10410;51.046;6.980;2022-07-17T12:48:16;26.50;65.90
20504;DHT22;10410;51.046;6.980;2022-07-17T12:55:17;26.90;63.70
20504;DHT22;10410;51.046;6.980;2022-07-17T13:02:17;27.30;63.00
20504;DHT22;10410;51.046;6.980;2022-07-17T13:09:18;27.80;62.00
20504;DHT22;10410;51.046;6.980;2022-07-17T13:16:20;28.00;59.20
20504;DHT22;10410;51.046;6.980;2022-07-17T13:23:21;28.10;59.60
20504;DHT22;10410;51.046;6.980;2022-07-17T13:30:21;28.30;57.80
20504;DHT22;10410;51.046;6.980;2022-07-17T13:37:21;28.60;56.40
20504;DHT22;10410;51.046;6.980;2022-07-17T13:44:22;28.70;54.50
20504;DHT22;10410;51.046;6.980;2022-07-17T13:51:22;29.20;53.10
20504;DHT22;10410;51.046;6.980;2022-07-17T13:58:22;29.30;54.30
20504;DHT22;10410;51.046;6.980;2022-07-17T14:05:23;29.80;53.90
20504;DHT22;10410;51.046;6.980;2022-07-17T14:12:24;30.10;52.10
20504;DHT22;10410;51.046;6.980;2022-07-17T14:19:25;30.30;51.70
20504;DHT22;10410;51.046;6.980;2022-07-17T14:26:25;30.60;52.00
20504;DHT22;10410;51.046;6.980;2022-07-17T14:33:26;31.00;51.30
20504;DHT22;10410;51.046;6.980;2022-07-17T14:40:27;31.20;51.30
20504;DHT22;10410;51.046;6.980;2022-07-17T14:47:28;31.50;50.60
20504;DHT22;10410;51.046;6.980;2022-07-17T14:54:28;31.30;49.50
20504;DHT22;10410;51.046;6.980;2022-07-17T15:01:30;31.30;50.40
20504;DHT22;10410;51.046;6.980;2022-07-17T15:08:31;31.50;50.00
20504;DHT22;10410;51.046;6.980;2022-07-17T15:15:32;31.60;49.10
20504;DHT22;10410;51.046;6.980;2022-07-17T15:22:32;31.70;48.90
20504;DHT22;10410;51.046;6.980;2022-07-17T15:29:33;31.50;48.60
20504;DHT22;10410;51.046;6.980;2022-07-17T15:36:33;31.20;48.80
20504;DHT22;10410;51.046;6.980;2022-07-17T15:43:34;31.70;49.70
20504;DHT22;10410;51.046;6.980;2022-07-17T15:50:34;32.00;48.90
20504;DHT22;10410;51.046;6.980;2022-07-17T15:57:35;31.80;48.60
20504;DHT22;10410;51.046;6.980;2022-07-17T16:04:40;31.70;49.10
20504;DHT22;10410;51.046;6.980;2022-07-17T16:11:41;32.00;48.60
20504;DHT22;10410;51.046;6.980;2022-07-17T16:18:42;32.00;48.40
20504;DHT22;10410;51.046;6.980;2022-07-17T16:25:43;31.80;48.00
20504;DHT22;10410;51.046;6.980;2022-07-17T16:32:44;31.50;47.60
20504;DHT22;10410;51.046;6.980;2022-07-17T16:39:44;31.50;48.50
20504;DHT22;10410;51.046;6.980;2022-07-17T16:46:44;31.70;48.00
20504;DHT22;10410;51.046;6.980;2022-07-17T16:53:45;31.50;48.10
20504;DHT22;10410;51.046;6.980;2022-07-17T17:00:45;31.30;48.20
20504;DHT22;10410;51.046;6.980;2022-07-17T17:07:46;30.90;48.10
20504;DHT22;10410;51.046;6.980;2022-07-17T17:14:46;30.80;48.80
20504;DHT22;10410;51.046;6.980;2022-07-17T17:21:47;30.80;48.60
20504;DHT22;10410;51.046;6.980;2022-07-17T17:28:47;30.60;48.80
20504;DHT22;10410;51.046;6.980;2022-07-17T17:35:48;30.50;48.30
20504;DHT22;10410;51.046;6.980;2022-07-17T17:42:48;30.20;49.00
20504;DHT22;10410;51.046;6.980;2022-07-17T17:49:49;30.00;49.40
20504;DHT22;10410;51.046;6.980;2022-07-17T17:56:49;29.70;49.60
20504;DHT22;10410;51.046;6.980;2022-07-17T18:03:50;29.40;50.00
20504;DHT22;10410;51.046;6.980;2022-07-17T18:10:50;29.30;50.80
20504;DHT22;10410;51.046;6.980;2022-07-17T18:17:51;29.60;50.90
20504;DHT22;10410;51.046;6.980;2022-07-17T18:24:51;29.60;50.60
20504;DHT22;10410;51.046;6.980;2022-07-17T18:31:51;29.40;51.10
20504;DHT22;10410;51.046;6.980;2022-07-17T18:38:52;29.10;51.00
20504;DHT22;10410;51.046;6.980;2022-07-17T18:45:52;29.00;51.30
20504;DHT22;10410;51.046;6.980;2022-07-17T18:52:53;28.90;51.60
20504;DHT22;10410;51.046;6.980;2022-07-17T18:59:54;28.60;51.90
20504;DHT22;10410;51.046;6.980;2022-07-17T19:06:56;28.20;53.00
20504;DHT22;10410;51.046;6.980;2022-07-17T19:13:57;27.80;52.80
20504;DHT22;10410;51.046;6.980;2022-07-17T19:20:58;27.50;53.40
20504;DHT22;10410;51.046;6.980;2022-07-17T19:27:59;27.00;54.20
20504;DHT22;10410;51.046;6.980;2022-07-17T19:35:01;26.70;54.80
20504;DHT22;10410;51.046;6.980;2022-07-17T19:42:01;26.30;55.20
20504;DHT22;10410;51.046;6.980;2022-07-17T19:49:02;25.90;55.80
20504;DHT22;10410;51.046;6.980;2022-07-17T19:56:03;25.60;56.50
20504;DHT22;10410;51.046;6.980;2022-07-17T20:03:12;25.30;57.40
20504;DHT22;10410;51.046;6.980;2022-07-17T20:10:13;24.90;58.20
20504;DHT22;10410;51.046;6.980;2022-07-17T20:17:13;24.50;58.90
20504;DHT22;10410;51.046;6.980;2022-07-17T20:24:14;24.20;59.80
20504;DHT22;10410;51.046;6.980;2022-07-17T20:31:14;23.90;60.80
20504;DHT22;10410;51.046;6.980;2022-07-17T20:38:15;23.50;61.50
20504;DHT22;10410;51.046;6.980;2022-07-17T20:45:20;23.20;62.10
20504;DHT22;10410;51.046;6.980;2022-07-17T20:52:20;23.00;62.80
20504;DHT22;10410;51.046;6.980;2022-07-17T20:59:22;22.70;63.50
20504;DHT22;10410;51.046;6.980;2022-07-17T21:06:22;22.40;64.50
20504;DHT22;10410;51.046;6.980;2022-07-17T21:13:24;22.10;65.20
20504;DHT22;10410;51.046;6.980;2022-07-17T21:20:25;21.90;66.30
20504;DHT22;10410;51.046;6.980;2022-07-17T21:27:25;21.60;67.20
20504;DHT22;10410;51.046;6.980;2022-07-17T21:34:26;21.40;67.20
20504;DHT22;10410;51.046;6.980;2022-07-17T21:41:26;21.40;67.20
20504;DHT22;10410;51.046;6.980;2022-07-17T21:48:27;21.30;67.60
20504;DHT22;10410;51.046;6.980;2022-07-17T21:55:28;21.20;67.80
20504;DHT22;10410;51.046;6.980;2022-07-17T22:02:29;21.10;68.00
20504;DHT22;10410;51.046;6.980;2022-07-17T22:09:29;21.00;68.20
20504;DHT22;10410;51.046;6.980;2022-07-17T22:16:30;20.90;68.40
20504;DHT22;10410;51.046;6.980;2022-07-17T22:23:31;20.90;68.70
20504;DHT22;10410;51.046;6.980;2022-07-17T22:30:31;20.80;68.90
20504;DHT22;10410;51.046;6.980;2022-07-17T22:37:32;20.60;69.10
20504;DHT22;10410;51.046;6.980;2022-07-17T22:44:32;20.50;69.40
20504;DHT22;10410;51.046;6.980;2022-07-17T22:51:33;20.40;69.60
20504;DHT22;10410;51.046;6.980;2022-07-17T22:58:34;20.30;69.70
20504;DHT22;10410;51.046;6.980;2022-07-17T23:05:34;20.20;69.90
20504;DHT22;10410;51.046;6.980;2022-07-17T23:12:35;20.10;70.20
20504;DHT22;10410;51.046;6.980;2022-07-17T23:19:36;20.00;70.50
20504;DHT22;10410;51.046;6.980;2022-07-17T23:26:36;19.80;70.90
20504;DHT22;10410;51.046;6.980;2022-07-17T23:33:37;19.60;71.50
20504;DHT22;10410;51.046;6.980;2022-07-17T23:40:38;19.30;72.20
20504;DHT22;10410;51.046;6.980;2022-07-17T23:47:38;19.10;72.90
20504;DHT22;10410;51.046;6.980;2022-07-17T23:54:39;19.00;73.30
